createdAt,value
2019-06-01T00:03:50.756Z,101732.69
2019-06-01T00:08:45.086Z,101726.03
2019-06-01T00:13:39.480Z,101726.34
2019-06-01T00:18:33.227Z,101725.28
2019-06-01T00:23:26.696Z,101725.41
2019-06-01T00:28:20.147Z,101727.98
2019-06-01T00:33:13.557Z,101729.34
2019-06-01T00:38:07.092Z,101728.47
2019-06-01T00:43:00.732Z,101724.14
2019-06-01T00:47:54.154Z,101723.17
2019-06-01T00:52:47.600Z,101724.13
2019-06-01T00:57:41.184Z,101727.73
2019-06-01T01:02:34.730Z,101729.42
2019-06-01T01:07:29.025Z,101732.03
2019-06-01T01:12:22.524Z,101739.41
2019-06-01T01:17:16.325Z,101738.27
2019-06-01T01:22:09.778Z,101734.75
2019-06-01T01:27:03.273Z,101740.52
2019-06-01T01:31:57.353Z,101741.49
2019-06-01T01:36:52.702Z,101740.48
2019-06-01T01:41:46.469Z,101737.14
2019-06-01T01:46:40.072Z,101732.73
2019-06-01T01:51:33.738Z,101738.66
2019-06-01T01:56:27.243Z,101734.37
2019-06-01T02:01:23.003Z,101730.00
2019-06-01T02:06:16.097Z,101726.09
2019-06-01T02:11:09.717Z,101726.88
2019-06-01T02:16:03.171Z,101728.58
2019-06-01T02:20:56.672Z,101733.00
2019-06-01T02:25:50.220Z,101733.77
2019-06-01T02:30:43.857Z,101734.36
2019-06-01T02:35:37.459Z,101734.29
2019-06-01T02:40:31.299Z,101728.95
2019-06-01T02:45:24.987Z,101719.08
2019-06-01T02:50:18.801Z,101721.14
2019-06-01T02:55:16.950Z,101723.17
2019-06-01T03:00:11.083Z,101723.36
2019-06-01T03:05:05.671Z,101722.13
2019-06-01T03:10:00.949Z,101719.36
2019-06-01T03:14:56.484Z,101716.00
2019-06-01T03:19:51.740Z,101717.08
2019-06-01T03:24:48.012Z,101711.50
2019-06-01T03:29:47.849Z,101717.70
2019-06-01T03:34:41.468Z,101724.13
2019-06-01T03:39:35.089Z,101721.37
2019-06-01T03:44:28.443Z,101720.05
2019-06-01T03:49:21.908Z,101722.44
2019-06-01T03:54:16.504Z,101716.73
2019-06-01T03:59:11.306Z,101717.27
2019-06-01T04:04:05.086Z,101720.70
2019-06-01T04:08:58.717Z,101717.12
2019-06-01T04:13:52.126Z,101726.58
2019-06-01T04:18:45.850Z,101720.67
2019-06-01T04:23:39.491Z,101726.34
2019-06-01T04:28:33.066Z,101734.97
2019-06-01T04:33:26.613Z,101738.02
2019-06-01T04:38:20.115Z,101731.93
2019-06-01T04:43:14.200Z,101738.28
2019-06-01T04:48:08.415Z,101736.74
2019-06-01T04:53:01.983Z,101738.95
2019-06-01T04:57:55.492Z,101728.70
2019-06-01T05:03:02.217Z,101726.57
2019-06-01T05:07:44.410Z,101735.70
2019-06-01T05:12:37.948Z,101739.72
2019-06-01T05:17:31.369Z,101735.89
2019-06-01T05:22:24.826Z,101736.68
2019-06-01T05:27:19.819Z,101738.80
2019-06-01T05:32:14.581Z,101734.70
2019-06-01T05:37:08.571Z,101722.28
2019-06-01T05:42:02.239Z,101723.20
2019-06-01T05:46:55.669Z,101717.27
2019-06-01T05:51:48.712Z,101709.48
2019-06-01T05:56:42.433Z,101698.55
2019-06-01T06:01:35.998Z,101696.78
2019-06-01T06:06:29.048Z,101681.82
2019-06-01T06:11:22.126Z,101686.12
2019-06-01T06:16:15.731Z,101679.80
2019-06-01T06:21:09.409Z,101684.85
2019-06-01T06:26:02.906Z,101680.24
2019-06-01T06:30:56.420Z,101680.27
2019-06-01T06:35:49.970Z,101679.44
2019-06-01T06:40:43.526Z,101676.20
2019-06-01T06:45:37.036Z,101670.00
2019-06-01T06:50:30.477Z,101676.24
2019-06-01T06:55:24.100Z,101658.66
2019-06-01T07:00:18.513Z,101665.14
2019-06-01T07:05:13.101Z,101671.89
2019-06-01T07:10:06.792Z,101666.67
2019-06-01T07:15:00.301Z,101658.60
2019-06-01T07:19:53.752Z,101666.73
2019-06-01T07:24:47.340Z,101656.92
2019-06-01T07:29:40.787Z,101671.92
2019-06-01T07:34:41.554Z,101670.09
2019-06-01T07:39:30.055Z,101679.00
2019-06-01T07:44:24.877Z,101669.59
2019-06-01T07:49:18.931Z,101679.71
2019-06-01T07:54:12.362Z,101682.86
2019-06-01T07:59:06.118Z,101682.16
2019-06-01T08:03:59.508Z,101675.00
2019-06-01T08:08:52.976Z,101667.37
2019-06-01T08:13:46.536Z,101666.16
2019-06-01T08:18:40.150Z,101667.54
2019-06-01T08:23:33.732Z,101655.22
2019-06-01T08:28:28.929Z,101648.97
2019-06-01T08:33:26.732Z,101641.70
2019-06-01T08:38:18.092Z,101646.08
2019-06-01T08:43:11.732Z,101636.66
2019-06-01T08:48:05.205Z,101632.91
2019-06-01T08:52:58.643Z,101640.82
2019-06-01T08:57:52.058Z,101633.66
2019-06-01T09:02:45.524Z,101636.64
2019-06-01T09:07:39.192Z,101634.33
2019-06-01T09:12:33.282Z,101627.25
2019-06-01T09:17:27.175Z,101620.17
2019-06-01T09:22:21.775Z,101622.61
2019-06-01T09:27:15.508Z,101614.86
2019-06-01T09:32:11.079Z,101611.44
2019-06-01T09:37:04.542Z,101614.43
2019-06-01T09:41:58.173Z,101609.47
2019-06-01T09:46:51.859Z,101611.58
2019-06-01T09:51:45.342Z,101615.34
2019-06-01T09:56:39.880Z,101615.34
2019-06-01T10:01:34.329Z,101611.20
2019-06-01T10:06:28.367Z,101609.29
2019-06-01T10:11:23.692Z,101614.48
2019-06-01T10:16:18.804Z,101608.93
2019-06-01T10:21:12.659Z,101610.04
2019-06-01T10:26:06.619Z,101605.41
2019-06-01T10:31:00.566Z,101605.09
2019-06-01T10:35:54.427Z,101607.41
2019-06-01T10:40:48.492Z,101613.03
2019-06-01T10:45:42.224Z,101607.77
2019-06-01T10:50:36.652Z,101600.66
2019-06-01T10:55:31.950Z,101593.67
2019-06-01T11:00:37.717Z,101596.88
2019-06-01T11:05:22.243Z,101591.55
2019-06-01T11:10:16.104Z,101583.83
2019-06-01T11:15:11.881Z,101580.92
2019-06-01T11:20:06.056Z,101567.22
2019-06-01T11:24:59.436Z,101569.36
2019-06-01T11:29:52.890Z,101568.43
2019-06-01T11:34:46.282Z,101564.95
2019-06-01T11:39:40.558Z,101563.23
2019-06-01T11:44:34.710Z,101556.80
2019-06-01T11:49:28.150Z,101544.98
2019-06-01T11:54:22.247Z,101528.73
2019-06-01T11:59:16.135Z,101529.20
2019-06-01T12:04:09.543Z,101530.50
2019-06-01T12:09:05.275Z,101524.36
2019-06-01T12:13:58.710Z,101515.06
2019-06-01T12:18:52.219Z,101517.03
2019-06-01T12:23:45.780Z,101514.99
2019-06-01T12:28:39.574Z,101501.05
2019-06-01T12:33:33.167Z,101502.95
2019-06-01T12:38:26.605Z,101485.05
2019-06-01T12:43:19.869Z,101477.70
2019-06-01T12:48:13.050Z,101474.70
2019-06-01T12:53:06.288Z,101474.17
2019-06-01T12:57:59.447Z,101476.93
2019-06-01T13:03:03.783Z,101467.64
2019-06-01T13:07:58.530Z,101463.24
2019-06-01T13:12:43.114Z,101453.38
2019-06-01T13:17:36.400Z,101451.77
2019-06-01T13:22:29.472Z,101451.75
2019-06-01T13:27:22.511Z,101435.66
2019-06-01T13:32:15.555Z,101426.98
2019-06-01T13:37:08.797Z,101430.19
2019-06-01T13:42:01.852Z,101417.85
2019-06-01T13:46:54.994Z,101409.16
2019-06-01T13:51:48.099Z,101408.45
2019-06-01T13:56:41.184Z,101397.88
2019-06-01T14:01:34.252Z,101385.03
2019-06-01T14:06:27.385Z,101383.72
2019-06-01T14:11:20.429Z,101376.09
2019-06-01T14:16:13.446Z,101375.77
2019-06-01T14:21:06.519Z,101368.83
2019-06-01T14:25:59.544Z,101366.98
2019-06-01T14:30:52.701Z,101359.61
2019-06-01T14:35:46.548Z,101360.88
2019-06-01T14:40:41.537Z,101353.59
2019-06-01T14:45:34.771Z,101345.87
2019-06-01T14:50:28.128Z,101338.27
2019-06-01T14:55:21.375Z,101339.45
2019-06-01T15:00:15.208Z,101331.65
2019-06-01T15:05:08.785Z,101336.16
2019-06-01T15:10:01.947Z,101327.00
2019-06-01T15:14:55.543Z,101323.66
2019-06-01T15:19:49.945Z,101325.82
2019-06-01T15:24:43.236Z,101325.02
2019-06-01T15:29:36.283Z,101323.59
2019-06-01T15:34:29.413Z,101317.74
2019-06-01T15:39:25.164Z,101307.85
2019-06-01T15:44:17.487Z,101297.98
2019-06-01T15:49:11.407Z,101303.08
2019-06-01T15:54:04.556Z,101298.75
2019-06-01T15:58:58.615Z,101293.84
2019-06-01T16:03:53.212Z,101295.94
2019-06-01T16:08:46.408Z,101298.13
2019-06-01T16:13:39.463Z,101286.17
2019-06-01T16:18:32.495Z,101279.59
2019-06-01T16:23:26.193Z,101280.29
2019-06-01T16:28:19.362Z,101283.78
2019-06-01T16:33:12.410Z,101277.43
2019-06-01T16:38:05.935Z,101281.27
2019-06-01T16:42:59.663Z,101278.61
2019-06-01T16:47:52.745Z,101278.44
2019-06-01T16:52:45.841Z,101277.70
2019-06-01T16:57:38.980Z,101280.02
2019-06-01T17:02:32.093Z,101272.44
2019-06-01T17:07:25.642Z,101271.60
2019-06-01T17:12:18.730Z,101270.75
2019-06-01T17:17:12.879Z,101267.63
2019-06-01T17:22:06.010Z,101262.31
2019-06-01T17:26:59.750Z,101260.83
2019-06-01T17:31:54.674Z,101258.97
2019-06-01T17:36:48.470Z,101258.13
2019-06-01T17:41:41.899Z,101256.83
2019-06-01T17:46:43.349Z,101252.51
2019-06-01T17:51:31.953Z,101263.01
2019-06-01T17:56:25.908Z,101256.34
2019-06-01T18:01:19.552Z,101249.50
2019-06-01T18:06:12.999Z,101256.06
2019-06-01T18:11:06.454Z,101253.56
2019-06-01T18:16:00.106Z,101252.81
2019-06-01T18:20:53.755Z,101247.08
2019-06-01T18:25:47.216Z,101244.42
2019-06-01T18:30:41.030Z,101243.84
2019-06-01T18:35:34.454Z,101247.71
2019-06-01T18:40:28.112Z,101250.45
2019-06-01T18:45:22.122Z,101250.12
2019-06-01T18:50:17.520Z,101247.13
2019-06-01T18:55:12.671Z,101242.84
2019-06-01T19:00:10.525Z,101244.23
2019-06-01T19:05:03.128Z,101239.57
2019-06-01T19:09:56.768Z,101239.09
2019-06-01T19:14:50.137Z,101238.28
2019-06-01T19:19:43.695Z,101242.40
2019-06-01T19:24:37.215Z,101242.17
2019-06-01T19:29:30.684Z,101242.53
2019-06-01T19:34:24.139Z,101242.09
2019-06-01T19:39:17.703Z,101245.44
2019-06-01T19:44:11.550Z,101236.19
2019-06-01T19:49:05.034Z,101234.94
2019-06-01T19:53:58.601Z,101237.00
2019-06-01T19:58:52.273Z,101237.63
2019-06-01T20:03:45.817Z,101232.00
2019-06-01T20:08:39.247Z,101233.33
2019-06-01T20:13:34.398Z,101240.37
2019-06-01T20:18:27.945Z,101245.92
2019-06-01T20:23:21.833Z,101245.27
2019-06-01T20:28:15.679Z,101244.63
2019-06-01T20:33:09.286Z,101242.98
2019-06-01T20:38:02.742Z,101242.59
2019-06-01T20:42:56.192Z,101238.13
2019-06-01T20:47:49.843Z,101238.88
2019-06-01T20:52:43.286Z,101237.64
2019-06-01T20:57:36.990Z,101231.72
2019-06-01T21:02:30.345Z,101238.16
2019-06-01T21:07:24.164Z,101230.44
2019-06-01T21:12:18.461Z,101230.31
2019-06-01T21:17:11.863Z,101222.44
2019-06-01T21:22:05.338Z,101221.27
2019-06-01T21:26:58.880Z,101220.63
2019-06-01T21:31:52.440Z,101223.09
2019-06-01T21:36:45.986Z,101222.27
2019-06-01T21:41:39.413Z,101217.19
2019-06-01T21:46:33.013Z,101218.83
2019-06-01T21:51:26.498Z,101219.51
2019-06-01T21:56:21.762Z,101217.69
2019-06-01T22:01:16.341Z,101219.31
2019-06-01T22:06:10.015Z,101213.72
2019-06-01T22:11:03.510Z,101206.63
2019-06-01T22:15:57.003Z,101204.47
2019-06-01T22:20:50.534Z,101206.46
2019-06-01T22:25:43.930Z,101201.98
2019-06-01T22:30:37.516Z,101200.55
2019-06-01T22:35:30.923Z,101201.64
2019-06-01T22:40:24.991Z,101195.00
2019-06-01T22:45:18.665Z,101194.26
2019-06-01T22:50:12.729Z,101186.63
2019-06-01T22:55:06.268Z,101187.02
2019-06-01T22:59:59.643Z,101185.98
2019-06-01T23:04:53.089Z,101184.12
2019-06-01T23:09:46.792Z,101182.94
2019-06-01T23:14:40.227Z,101181.06
2019-06-01T23:19:33.664Z,101178.27
2019-06-01T23:24:28.217Z,101179.91
2019-06-01T23:29:24.098Z,101175.32
2019-06-01T23:34:17.678Z,101172.80
2019-06-01T23:39:11.009Z,101171.84
2019-06-01T23:44:11.642Z,101170.82
2019-06-01T23:48:59.963Z,101163.61
2019-06-01T23:53:53.433Z,101160.31
2019-06-01T23:58:47.767Z,101154.60
